Time;durP1;ratioP1;P1;durP2;ratioP2;P2;SDS_P1;SDS_P2;PMS_P1;PMS_P2;Temp;Humidity;BMP_temperature;BMP_pressure;BME280_temperature;BME280_humidity;BME280_pressure;Samples;Min_cycle;Max_cycle;Signal;HPM_P1;HPM_P2
2021/12/10 00:01:32;;;;;;;14.13;2.70;;;10.60;86.60;;;;;;5014367;28;20018;-76
2021/12/10 00:04:02;;;;;;;11.50;3.03;;;10.60;86.50;;;;;;5015161;28;20030;-76
2021/12/10 00:06:32;;;;;;;17.38;3.00;;;10.60;85.80;;;;;;5013848;28;20115;-76
2021/12/10 00:09:04;;;;;;;18.15;2.55;;;10.50;85.60;;;;;;5015229;28;20606;-76
2021/12/10 00:11:38;;;;;;;16.70;2.67;;;10.40;85.50;;;;;;5014447;28;20026;-76
2021/12/10 00:14:05;;;;;;;16.23;2.78;;;10.40;85.60;;;;;;5015468;28;20034;-76
2021/12/10 00:16:32;;;;;;;18.70;2.65;;;10.30;85.80;;;;;;5014889;28;20823;-76
2021/12/10 00:19:12;;;;;;;15.55;2.83;;;10.30;85.20;;;;;;5014793;28;20054;-76
2021/12/10 00:21:38;;;;;;;13.30;2.85;;;10.30;85.00;;;;;;5014717;28;20499;-76
2021/12/10 00:24:05;;;;;;;15.18;2.65;;;10.30;85.80;;;;;;5015258;28;20639;-76
2021/12/10 00:26:33;;;;;;;20.95;2.88;;;10.30;85.40;;;;;;5014607;28;20064;-76
2021/12/10 00:29:03;;;;;;;20.50;3.67;;;10.30;86.10;;;;;;5014084;28;20040;-76
2021/12/10 00:34:09;;;;;;;13.13;2.50;;;10.30;85.60;;;;;;5034957;28;20033;-76
2021/12/10 00:36:36;;;;;;;19.20;3.10;;;10.30;85.00;;;;;;5034255;28;20068;-76
2021/12/10 00:39:11;;;;;;;19.00;3.35;;;10.30;85.40;;;;;;5030051;28;20029;-76
2021/12/10 00:41:37;;;;;;;16.25;2.70;;;10.30;85.30;;;;;;5014728;28;20404;-76
2021/12/10 00:44:04;;;;;;;18.25;2.00;;;10.30;85.30;;;;;;5013421;28;20033;-76
2021/12/10 00:46:30;;;;;;;13.02;2.38;;;10.30;85.10;;;;;;5048156;28;20112;-76
2021/12/10 00:48:56;;;;;;;14.13;2.58;;;10.20;84.60;;;;;;5015018;28;20034;-76
2021/12/10 00:51:21;;;;;;;11.82;2.13;;;10.20;85.00;;;;;;5013238;28;20025;-76
2021/12/10 00:53:47;;;;;;;13.55;2.22;;;10.10;83.80;;;;;;5013786;28;20048;-76
2021/12/10 00:56:14;;;;;;;13.73;2.30;;;10.20;84.40;;;;;;5013372;28;20034;-76
2021/12/10 00:58:41;;;;;;;7.75;1.45;;;10.10;84.80;;;;;;5013634;28;20061;-76
2021/12/10 01:01:15;;;;;;;3.80;1.63;;;10.10;84.90;;;;;;5020753;28;20030;-76
2021/12/10 01:04:11;;;;;;;2.38;1.23;;;10.00;84.30;;;;;;5032787;28;20033;-76
2021/12/10 01:06:46;;;;;;;5.68;1.77;;;9.90;84.80;;;;;;5034203;28;20155;-76
2021/12/10 01:09:21;;;;;;;1.58;1.10;;;9.90;86.60;;;;;;5018243;28;20029;-77
2021/12/10 01:11:58;;;;;;;10.75;1.30;;;9.60;84.50;;;;;;5014879;28;20026;-76
2021/12/10 01:25:36;;;;;;;3.67;1.33;;;9.50;85.60;;;;;;5018242;28;20483;-76
2021/12/10 01:28:03;;;;;;;3.33;1.20;;;9.50;85.90;;;;;;5018374;28;20057;-76
2021/12/10 01:30:32;;;;;;;11.95;2.25;;;9.50;85.60;;;;;;5018047;28;20033;-76
2021/12/10 01:33:12;;;;;;;3.33;1.35;;;9.40;85.00;;;;;;5018326;28;20085;-76
2021/12/10 01:35:45;;;;;;;11.55;2.00;;;9.30;85.10;;;;;;5017773;28;20046;-76
2021/12/10 01:38:13;;;;;;;13.10;1.98;;;9.30;86.00;;;;;;5017663;28;20084;-76
2021/12/10 01:40:43;;;;;;;9.50;1.33;;;9.30;85.80;;;;;;5017732;28;20034;-76
2021/12/10 01:43:21;;;;;;;6.28;1.52;;;9.30;85.20;;;;;;5016387;28;20516;-76
2021/12/10 01:45:48;;;;;;;6.78;2.53;;;9.20;85.90;;;;;;5040672;28;20120;-76
2021/12/10 01:48:24;;;;;;;12.07;1.90;;;9.20;85.60;;;;;;5056081;28;20048;-76
2021/12/10 01:50:50;;;;;;;6.25;1.63;;;9.10;84.60;;;;;;5028223;28;20038;-76
2021/12/10 01:53:21;;;;;;;5.22;1.25;;;9.10;84.10;;;;;;5017203;28;20022;-76
2021/12/10 01:55:49;;;;;;;5.47;1.45;;;9.10;85.20;;;;;;5015795;28;20037;-76
2021/12/10 01:58:18;;;;;;;6.50;1.42;;;9.10;84.60;;;;;;5017289;28;20053;-76
2021/12/10 02:00:50;;;;;;;8.65;1.80;;;9.10;84.30;;;;;;5017940;28;20084;-76
2021/12/10 02:03:19;;;;;;;9.80;1.80;;;9.10;84.30;;;;;;5017271;28;20050;-76
2021/12/10 02:05:45;;;;;;;5.78;1.95;;;9.10;84.80;;;;;;5015927;28;20116;-76
2021/12/10 02:08:10;;;;;;;7.75;1.77;;;9.20;84.30;;;;;;5017647;28;20056;-76
2021/12/10 02:10:36;;;;;;;8.23;1.30;;;9.20;83.20;;;;;;5032253;28;20488;-76
2021/12/10 02:13:03;;;;;;;17.90;2.80;;;9.20;84.50;;;;;;5015419;28;20038;-76
2021/12/10 02:15:29;;;;;;;6.07;1.80;;;9.30;83.90;;;;;;5017131;28;20041;-76
2021/12/10 02:17:57;;;;;;;13.48;2.08;;;9.30;83.30;;;;;;5017186;28;20055;-76
2021/12/10 02:20:36;;;;;;;11.00;1.58;;;9.30;83.90;;;;;;5017230;28;20061;-76
2021/12/10 02:23:05;;;;;;;10.60;1.75;;;9.20;83.10;;;;;;5015799;28;20017;-76
2021/12/10 02:25:36;;;;;;;15.10;2.43;;;9.20;84.00;;;;;;5027968;28;20026;-76
2021/12/10 02:28:02;;;;;;;;;;;9.20;84.10;;;;;;5035992;28;20038;-76
2021/12/10 02:30:29;;;;;;;6.78;2.33;;;9.30;85.20;;;;;;5031096;28;19910;-76
2021/12/10 02:32:55;;;;;;;12.00;2.50;;;9.20;83.90;;;;;;5016778;28;20134;-76
2021/12/10 02:35:21;;;;;;;16.30;2.53;;;9.30;84.60;;;;;;5016617;28;20512;-76
2021/12/10 02:37:48;;;;;;;10.73;1.90;;;9.30;84.30;;;;;;5016434;28;20053;-75
2021/12/10 02:40:17;;;;;;;5.50;1.55;;;9.20;84.50;;;;;;5016729;28;20053;-76
2021/12/10 02:42:43;;;;;;;9.05;2.33;;;9.20;84.00;;;;;;5016488;28;20091;-76
2021/12/10 02:45:12;;;;;;;3.33;1.52;;;9.20;84.70;;;;;;5029989;28;20040;-76
2021/12/10 02:47:38;;;;;;;14.65;1.80;;;9.10;83.70;;;;;;5056048;28;20523;-76
2021/12/10 02:50:07;;;;;;;6.47;1.88;;;9.10;84.70;;;;;;5056044;28;20091;-76
2021/12/10 02:52:33;;;;;;;10.77;1.60;;;9.10;84.70;;;;;;5035807;28;20057;-76
2021/12/10 02:54:59;;;;;;;2.42;1.30;;;9.00;84.30;;;;;;5016515;28;20115;-76
2021/12/10 02:57:27;;;;;;;6.20;1.35;;;9.00;84.30;;;;;;5016119;28;20030;-76
2021/12/10 02:59:52;;;;;;;8.90;1.98;;;9.00;84.50;;;;;;5016131;28;20052;-76
2021/12/10 03:02:22;;;;;;;10.40;2.13;;;9.00;84.70;;;;;;5015918;28;20085;-76
2021/12/10 03:04:48;;;;;;;9.77;1.70;;;8.90;84.80;;;;;;5015852;28;20072;-76
2021/12/10 03:07:16;;;;;;;4.97;1.38;;;8.90;84.80;;;;;;5015953;28;20519;-76
2021/12/10 03:09:45;;;;;;;11.82;1.77;;;8.90;85.10;;;;;;5030796;28;20029;-76
2021/12/10 03:12:13;;;;;;;7.47;1.48;;;8.90;85.00;;;;;;5031434;28;20029;-76
2021/12/10 03:14:44;;;;;;;2.00;1.15;;;8.90;86.10;;;;;;5014759;28;20510;-76
2021/12/10 03:17:17;;;;;;;6.32;1.63;;;8.70;84.40;;;;;;5031286;28;20032;-76
2021/12/10 03:19:43;;;;;;;9.45;1.58;;;8.70;86.00;;;;;;5015828;28;20045;-76
2021/12/10 03:22:08;;;;;;;9.27;1.70;;;8.70;86.30;;;;;;5015543;28;20029;-76
2021/12/10 03:24:35;;;;;;;6.25;1.67;;;8.60;85.80;;;;;;5014243;28;20026;-76
2021/12/10 03:27:06;;;;;;;9.65;1.63;;;8.70;86.50;;;;;;5015853;28;20022;-76
2021/12/10 03:29:35;;;;;;;16.08;1.90;;;8.70;86.30;;;;;;5015751;28;20650;-76
2021/12/10 03:32:05;;;;;;;9.43;1.33;;;8.80;85.90;;;;;;5014256;28;20026;-76
2021/12/10 03:34:36;;;;;;;8.85;1.73;;;8.70;84.10;;;;;;5014383;28;21058;-76
2021/12/10 03:37:03;;;;;;;12.45;2.20;;;8.60;85.80;;;;;;5014696;28;20088;-76
2021/12/10 03:39:28;;;;;;;10.32;1.65;;;8.60;85.00;;;;;;5014081;28;20052;-76
2021/12/10 03:41:57;;;;;;;10.57;1.67;;;8.60;85.00;;;;;;5015391;28;20509;-76
2021/12/10 03:44:22;;;;;;;5.65;1.65;;;8.50;83.90;;;;;;5014451;28;20030;-76
2021/12/10 03:46:51;;;;;;;13.38;1.65;;;8.50;85.00;;;;;;5054323;28;20132;-76
2021/12/10 03:49:17;;;;;;;11.30;2.10;;;8.50;85.10;;;;;;5054120;28;20028;-76
2021/12/10 03:51:44;;;;;;;4.15;1.40;;;8.50;84.10;;;;;;5034330;28;20134;-76
2021/12/10 03:54:12;;;;;;;6.10;1.42;;;8.50;84.30;;;;;;5014046;28;20034;-76
2021/12/10 03:56:39;;;;;;;11.55;1.67;;;8.40;84.70;;;;;;5015325;28;20033;-76
2021/12/10 03:59:08;;;;;;;5.45;2.03;;;8.40;84.30;;;;;;5015596;28;20553;-76
2021/12/10 04:01:37;;;;;;;8.15;2.17;;;8.40;83.70;;;;;;5013854;28;20032;-76
2021/12/10 04:04:06;;;;;;;5.68;1.42;;;8.50;84.80;;;;;;5014123;28;20480;-76
2021/12/10 04:06:32;;;;;;;11.38;1.45;;;8.40;84.10;;;;;;5015128;28;20429;-76
2021/12/10 04:08:59;;;;;;;10.30;1.88;;;8.40;83.40;;;;;;5017486;28;20044;-76
2021/12/10 04:11:25;;;;;;;10.32;1.70;;;8.40;83.80;;;;;;5015403;28;20037;-76
2021/12/10 04:13:53;;;;;;;9.25;1.88;;;8.60;84.30;;;;;;5015116;28;20483;-76
2021/12/10 04:16:22;;;;;;;5.47;1.55;;;8.60;84.80;;;;;;5015467;28;20042;-76
2021/12/10 04:18:50;;;;;;;4.70;1.35;;;8.60;83.40;;;;;;5014044;28;20050;-76
2021/12/10 04:21:17;;;;;;;9.57;2.65;;;8.70;83.80;;;;;;5013382;28;20026;-76
2021/12/10 04:23:43;;;;;;;5.30;1.75;;;8.60;82.50;;;;;;5014973;28;20018;-76
2021/12/10 04:26:12;;;;;;;2.95;1.33;;;8.60;82.70;;;;;;5013633;28;20026;-76
2021/12/10 04:28:38;;;;;;;13.75;2.20;;;8.60;83.10;;;;;;5013902;28;20026;-76
2021/12/10 04:31:03;;;;;;;10.48;1.85;;;8.60;84.00;;;;;;5015289;28;20138;-76
2021/12/10 04:33:29;;;;;;;6.72;1.58;;;8.60;83.70;;;;;;5014700;28;20511;-76
2021/12/10 04:35:57;;;;;;;14.88;2.17;;;8.60;84.40;;;;;;5014734;28;20044;-76
2021/12/10 04:38:26;;;;;;;8.07;2.05;;;8.60;84.90;;;;;;5013581;28;20036;-76
2021/12/10 04:40:56;;;;;;;8.15;1.52;;;8.60;84.40;;;;;;5014837;28;20088;-76
2021/12/10 04:43:24;;;;;;;9.52;2.08;;;8.60;84.70;;;;;;5024884;28;20029;-76
2021/12/10 04:45:53;;;;;;;19.80;2.53;;;8.50;83.40;;;;;;5039439;28;20045;-76
2021/12/10 04:48:20;;;;;;;7.80;1.73;;;8.50;84.10;;;;;;5054458;28;20065;-76
2021/12/10 04:50:46;;;;;;;8.50;1.77;;;8.50;84.80;;;;;;5042919;28;20621;-77
2021/12/10 04:53:11;;;;;;;10.57;2.15;;;8.40;85.00;;;;;;5014763;28;20061;-76
2021/12/10 04:55:39;;;;;;;5.85;1.40;;;8.30;84.30;;;;;;5015475;28;20049;-76
2021/12/10 04:58:05;;;;;;;8.25;1.30;;;8.30;84.30;;;;;;5016445;28;20033;-76
2021/12/10 05:00:42;;;;;;;6.43;1.50;;;8.20;84.90;;;;;;5018329;28;20540;-76
2021/12/10 05:03:09;;;;;;;6.85;1.33;;;8.10;84.60;;;;;;5017374;28;20033;-76
2021/12/10 05:05:42;;;;;;;3.72;1.10;;;8.20;84.00;;;;;;5017642;28;20111;-76
2021/12/10 05:08:09;;;;;;;7.15;1.27;;;8.00;83.40;;;;;;5016908;28;20408;-77
2021/12/10 05:10:35;;;;;;;2.40;0.98;;;7.80;84.60;;;;;;5016964;28;20038;-76
2021/12/10 05:13:01;;;;;;;5.05;1.15;;;7.60;83.70;;;;;;5017021;28;20052;-76
2021/12/10 05:15:30;;;;;;;3.08;1.42;;;7.70;85.10;;;;;;5016767;28;20026;-76
2021/12/10 05:17:56;;;;;;;3.58;1.23;;;7.70;83.80;;;;;;5018303;28;20025;-76
2021/12/10 05:20:29;;;;;;;6.40;1.20;;;7.70;84.80;;;;;;5018456;28;20040;-76
2021/12/10 05:22:55;;;;;;;2.67;1.30;;;7.60;84.10;;;;;;5018495;28;20022;-75
2021/12/10 05:25:21;;;;;;;10.27;1.83;;;7.60;84.30;;;;;;5018074;28;20392;-75
2021/12/10 05:27:48;;;;;;;7.28;1.65;;;7.50;84.90;;;;;;5017907;28;20045;-76
2021/12/10 05:30:19;;;;;;;6.57;2.35;;;7.60;84.30;;;;;;5016389;28;20156;-76
2021/12/10 05:32:45;;;;;;;4.97;1.30;;;7.50;82.70;;;;;;5017088;28;20172;-77
2021/12/10 05:35:12;;;;;;;4.72;1.30;;;7.50;82.80;;;;;;5018226;28;20057;-77
2021/12/10 05:37:38;;;;;;;6.35;1.25;;;7.60;84.40;;;;;;5017710;28;20026;-77
2021/12/10 05:40:06;;;;;;;5.00;1.80;;;7.60;82.60;;;;;;5016544;28;20041;-78
2021/12/10 05:42:31;;;;;;;1.40;1.15;;;7.70;84.70;;;;;;5017440;28;20435;-78
2021/12/10 05:44:57;;;;;;;5.75;1.30;;;7.70;85.20;;;;;;5027557;28;20100;-76
2021/12/10 05:58:25;;;;;;;7.57;1.45;;;7.00;86.50;;;;;;5128661;27;20408;-80
2021/12/10 06:00:55;;;;;;;11.70;1.60;;;6.80;85.10;;;;;;5109743;28;20054;-79
2021/12/10 06:03:23;;;;;;;3.13;1.25;;;6.90;83.50;;;;;;5091448;28;20032;-79
2021/12/10 06:05:49;;;;;;;7.07;1.63;;;7.20;84.00;;;;;;5090475;28;20498;-79
2021/12/10 06:08:15;;;;;;;3.42;1.30;;;7.30;84.40;;;;;;5107712;28;20449;-77
2021/12/10 06:10:42;;;;;;;11.38;1.75;;;7.50;84.70;;;;;;5091229;28;20032;-79
2021/12/10 06:13:08;;;;;;;8.43;1.40;;;7.60;82.90;;;;;;5108104;28;20035;-82
2021/12/10 06:15:35;;;;;;;4.47;1.52;;;7.70;84.00;;;;;;5112139;28;20035;-87
2021/12/10 06:18:01;;;;;;;12.50;2.08;;;7.80;83.60;;;;;;5109272;28;20053;-85
2021/12/10 06:20:31;;;;;;;6.60;1.70;;;7.80;83.80;;;;;;5112541;28;20059;-80
2021/12/10 06:22:59;;;;;;;2.58;1.38;;;7.90;83.90;;;;;;5110465;27;20020;-80
2021/12/10 06:25:29;;;;;;;4.10;1.48;;;8.00;84.00;;;;;;5098799;28;20476;-80
2021/12/10 06:27:55;;;;;;;7.50;1.77;;;8.00;83.90;;;;;;5107107;28;20510;-80
2021/12/10 06:30:26;;;;;;;7.65;1.27;;;7.90;84.10;;;;;;5095130;28;20482;-80
2021/12/10 06:32:54;;;;;;;3.13;1.20;;;7.80;83.70;;;;;;5103928;28;20057;-80
2021/12/10 06:35:22;;;;;;;6.22;1.33;;;7.80;84.00;;;;;;5109820;27;20032;-81
2021/12/10 06:37:48;;;;;;;5.50;1.85;;;7.70;84.30;;;;;;5110265;28;20028;-81
2021/12/10 06:40:17;;;;;;;4.65;1.20;;;7.70;84.20;;;;;;5110485;28;20020;-81
2021/12/10 06:42:43;;;;;;;3.47;1.30;;;7.70;83.60;;;;;;5110153;28;20020;-81
2021/12/10 06:45:11;;;;;;;3.83;1.30;;;7.60;84.10;;;;;;5115978;27;20027;-80
2021/12/10 06:47:37;;;;;;;3.50;1.10;;;7.60;84.00;;;;;;5148369;27;20036;-81
2021/12/10 06:50:05;;;;;;;3.28;1.33;;;7.50;84.30;;;;;;5120408;27;20077;-81
2021/12/10 06:52:31;;;;;;;2.97;0.88;;;7.50;84.40;;;;;;5100570;28;20023;-81
2021/12/10 06:54:57;;;;;;;3.53;1.10;;;7.50;83.90;;;;;;5111738;28;20117;-81
2021/12/10 06:57:23;;;;;;;3.63;1.40;;;7.50;84.40;;;;;;5109219;28;20585;-81
2021/12/10 06:59:49;;;;;;;1.60;1.00;;;7.50;84.60;;;;;;5111891;28;20089;-80
2021/12/10 07:02:14;;;;;;;3.92;1.23;;;7.40;83.60;;;;;;5111608;28;20036;-80
2021/12/10 07:04:41;;;;;;;4.95;1.73;;;7.40;84.00;;;;;;5108855;28;20101;-79
2021/12/10 07:07:11;;;;;;;5.47;1.40;;;7.40;83.60;;;;;;5102181;28;20031;-79
2021/12/10 07:09:38;;;;;;;3.97;1.60;;;7.40;84.10;;;;;;5094870;28;20028;-80
2021/12/10 07:12:06;;;;;;;3.78;1.17;;;7.30;83.80;;;;;;5095921;28;20429;-78
2021/12/10 07:14:32;;;;;;;2.22;1.10;;;7.30;84.00;;;;;;5095380;28;20486;-81
2021/12/10 07:16:58;;;;;;;2.70;1.05;;;7.30;84.20;;;;;;5089907;28;20113;-81
2021/12/10 07:19:26;;;;;;;3.95;1.00;;;7.20;83.90;;;;;;5097636;28;20016;-80
2021/12/10 07:21:57;;;;;;;6.28;1.60;;;7.20;83.80;;;;;;5097048;28;20024;-80
2021/12/10 07:24:23;;;;;;;5.13;1.63;;;7.20;84.30;;;;;;5096939;28;20460;-81
2021/12/10 07:26:50;;;;;;;7.85;2.10;;;7.30;84.50;;;;;;5096948;28;20078;-81
2021/12/10 07:29:16;;;;;;;2.08;1.00;;;7.20;83.60;;;;;;5097356;28;20020;-80
2021/12/10 07:31:43;;;;;;;8.38;1.73;;;7.40;84.70;;;;;;5090084;28;20025;-80
2021/12/10 07:34:09;;;;;;;4.28;1.27;;;7.40;83.30;;;;;;5076778;28;20059;-80
2021/12/10 07:36:37;;;;;;;5.78;1.48;;;7.50;84.80;;;;;;5076279;28;20032;-80
2021/12/10 07:39:05;;;;;;;5.88;2.38;;;7.50;83.50;;;;;;5082012;28;20104;-80
2021/12/10 07:41:31;;;;;;;1.50;1.20;;;7.50;82.60;;;;;;5077023;28;20029;-80
2021/12/10 07:43:56;;;;;;;3.70;1.20;;;7.50;82.60;;;;;;5087979;28;20024;-80
2021/12/10 07:46:24;;;;;;;3.72;1.30;;;7.50;83.40;;;;;;5113751;28;20031;-80
2021/12/10 07:48:50;;;;;;;3.88;1.20;;;7.40;82.70;;;;;;5086848;28;20031;-80
2021/12/10 07:51:21;;;;;;;6.50;1.52;;;7.40;84.30;;;;;;5096810;28;20023;-80
2021/12/10 07:53:47;;;;;;;2.25;1.35;;;7.40;83.80;;;;;;5096876;28;20024;-80
2021/12/10 07:56:19;;;;;;;7.32;1.60;;;7.50;85.20;;;;;;5094919;28;20028;-80
2021/12/10 07:58:45;;;;;;;3.05;1.63;;;7.60;85.40;;;;;;5076475;28;20039;-80
2021/12/10 08:01:18;;;;;;;5.32;1.40;;;7.60;84.60;;;;;;5076650;28;20029;-80
2021/12/10 08:03:45;;;;;;;1.50;1.27;;;7.70;83.90;;;;;;5075123;28;20024;-81
2021/12/10 08:06:12;;;;;;;7.00;1.38;;;7.70;84.00;;;;;;5076239;28;20096;-80
2021/12/10 08:08:37;;;;;;;5.93;1.40;;;7.70;84.20;;;;;;5085958;28;20024;-80
2021/12/10 08:11:04;;;;;;;4.97;1.50;;;7.70;84.30;;;;;;5094962;28;20030;-80
2021/12/10 08:13:30;;;;;;;5.38;1.92;;;7.60;84.20;;;;;;5094631;28;20021;-80
2021/12/10 08:15:56;;;;;;;7.13;1.60;;;7.60;84.00;;;;;;5076404;28;20021;-80
2021/12/10 08:18:22;;;;;;;3.25;1.52;;;7.50;83.30;;;;;;5075795;28;20091;-80
2021/12/10 08:20:48;;;;;;;8.75;3.20;;;7.60;84.60;;;;;;5075232;28;20044;-80
2021/12/10 08:23:15;;;;;;;7.00;2.20;;;7.60;83.30;;;;;;5076032;28;20030;-80
2021/12/10 08:25:41;;;;;;;4.53;2.55;;;7.50;84.10;;;;;;5074851;28;20479;-80
2021/12/10 08:28:07;;;;;;;8.63;1.67;;;7.50;83.90;;;;;;5073898;28;20028;-80
2021/12/10 08:30:40;;;;;;;4.28;1.15;;;7.70;84.20;;;;;;5076003;28;20055;-80
2021/12/10 08:33:12;;;;;;;3.97;1.48;;;7.70;82.80;;;;;;5074688;28;20054;-80
2021/12/10 08:35:43;;;;;;;2.80;1.30;;;7.90;81.70;;;;;;5075954;28;20034;-80
2021/12/10 08:38:09;;;;;;;5.05;1.40;;;8.00;82.60;;;;;;5074922;28;20120;-80
2021/12/10 08:40:40;;;;;;;4.82;1.30;;;8.00;81.90;;;;;;5074875;28;20529;-80
2021/12/10 08:43:06;;;;;;;4.22;1.48;;;7.90;81.50;;;;;;5085270;28;20031;-80
2021/12/10 08:45:33;;;;;;;6.63;1.35;;;7.90;82.90;;;;;;5096308;28;20016;-80
2021/12/10 08:48:00;;;;;;;3.67;1.48;;;7.90;81.80;;;;;;5093685;28;20573;-80
2021/12/10 08:50:27;;;;;;;3.53;1.20;;;7.90;82.30;;;;;;5091792;28;20028;-80
2021/12/10 08:52:57;;;;;;;4.88;1.45;;;7.90;82.00;;;;;;5095562;28;20127;-80
2021/12/10 08:55:27;;;;;;;7.93;1.80;;;7.80;81.70;;;;;;5095985;28;20060;-79
2021/12/10 08:57:53;;;;;;;7.55;1.20;;;7.70;84.50;;;;;;5094848;28;20056;-79
2021/12/10 09:00:20;;;;;;;4.93;1.42;;;7.60;84.00;;;;;;5076455;28;20104;-79
2021/12/10 09:02:52;;;;;;;1.48;1.00;;;7.50;84.40;;;;;;5081987;28;20444;-76
2021/12/10 09:05:18;;;;;;;6.57;1.70;;;7.50;84.20;;;;;;5074939;28;20024;-79
2021/12/10 09:07:45;;;;;;;8.32;1.75;;;7.70;84.80;;;;;;5072602;28;20033;-79
2021/12/10 09:10:14;;;;;;;8.02;1.55;;;7.60;84.10;;;;;;5078761;28;20028;-79
2021/12/10 09:12:40;;;;;;;5.35;1.55;;;7.60;83.80;;;;;;5094347;28;20036;-79
2021/12/10 09:15:09;;;;;;;1.73;1.20;;;7.60;84.00;;;;;;5095687;28;20076;-78
2021/12/10 09:17:37;;;;;;;8.38;1.40;;;7.70;83.90;;;;;;5092528;28;20512;-79
2021/12/10 09:20:13;;;;;;;5.80;1.50;;;7.70;83.50;;;;;;5095434;28;20048;-78
2021/12/10 09:22:39;;;;;;;2.90;1.10;;;7.80;83.70;;;;;;5087248;28;20103;-79
2021/12/10 09:25:06;;;;;;;2.72;1.30;;;7.80;83.60;;;;;;5075012;28;20114;-79
2021/12/10 09:27:32;;;;;;;4.47;1.38;;;7.90;83.70;;;;;;5090788;28;20486;-79
2021/12/10 09:29:58;;;;;;;5.63;1.60;;;7.90;82.00;;;;;;5094916;28;20028;-79
2021/12/10 09:32:26;;;;;;;4.00;1.20;;;8.10;82.90;;;;;;5092776;28;20107;-79
2021/12/10 09:34:55;;;;;;;2.65;1.10;;;8.10;82.20;;;;;;5073691;28;20028;-79
2021/12/10 09:37:24;;;;;;;5.68;1.30;;;8.30;81.70;;;;;;5085237;28;20024;-79
2021/12/10 09:39:51;;;;;;;3.65;1.23;;;8.70;80.10;;;;;;5093194;28;20028;-79
2021/12/10 09:42:20;;;;;;;2.40;0.82;;;8.90;79.50;;;;;;5094844;28;20051;-79
2021/12/10 09:44:46;;;;;;;0.85;0.80;;;8.70;74.00;;;;;;5094263;28;20474;-79
2021/12/10 09:47:15;;;;;;;3.97;1.83;;;8.30;74.10;;;;;;5115058;28;20123;-79
2021/12/10 09:49:47;;;;;;;0.77;0.77;;;8.20;75.60;;;;;;5115274;28;20379;-79
2021/12/10 09:52:16;;;;;;;1.23;0.77;;;8.00;74.80;;;;;;5114004;28;20023;-79
2021/12/10 09:54:43;;;;;;;0.80;0.80;;;7.80;75.20;;;;;;5087069;28;20035;-79
2021/12/10 09:57:12;;;;;;;5.78;1.15;;;7.80;75.10;;;;;;5074503;28;20051;-78
2021/12/10 09:59:41;;;;;;;1.27;0.83;;;7.80;76.30;;;;;;5074054;28;20024;-80
2021/12/10 10:02:07;;;;;;;2.25;0.82;;;7.70;78.40;;;;;;5086073;28;20531;-79
2021/12/10 10:04:35;;;;;;;6.88;1.70;;;7.70;78.30;;;;;;5074553;28;20375;-80
2021/12/10 10:07:08;;;;;;;2.33;1.17;;;7.90;78.40;;;;;;5074348;28;20134;-80
2021/12/10 10:09:34;;;;;;;5.72;1.08;;;8.00;78.50;;;;;;5074116;28;20017;-79
2021/12/10 10:12:12;;;;;;;2.85;1.05;;;8.10;79.30;;;;;;5073279;28;20559;-79
2021/12/10 10:14:39;;;;;;;5.53;1.27;;;8.20;80.00;;;;;;5074478;28;20056;-79
2021/12/10 10:17:07;;;;;;;2.55;1.23;;;8.10;80.10;;;;;;5073962;28;20053;-79
2021/12/10 10:19:34;;;;;;;4.68;1.67;;;8.00;79.80;;;;;;5073130;28;20031;-79
2021/12/10 10:22:01;;;;;;;8.93;2.22;;;8.20;81.30;;;;;;5074251;28;20020;-79
2021/12/10 10:24:29;;;;;;;2.67;1.65;;;8.40;82.40;;;;;;5074484;28;20016;-79
2021/12/10 10:27:01;;;;;;;5.03;2.30;;;8.40;80.90;;;;;;5083634;28;20043;-79
2021/12/10 10:29:32;;;;;;;4.07;1.40;;;8.60;81.80;;;;;;5082474;28;20031;-79
2021/12/10 10:32:10;;;;;;;3.22;1.00;;;8.70;81.60;;;;;;5094597;28;20054;-79
2021/12/10 10:34:49;;;;;;;3.00;1.27;;;8.80;81.70;;;;;;5089152;28;20745;-79
2021/12/10 10:37:15;;;;;;;6.13;1.45;;;8.90;80.10;;;;;;5073967;28;20060;-80
2021/12/10 10:39:43;;;;;;;3.45;1.33;;;9.00;80.70;;;;;;5076242;28;20032;-79
2021/12/10 10:42:16;;;;;;;2.92;1.38;;;9.20;80.80;;;;;;5072772;28;20035;-80
2021/12/10 10:44:43;;;;;;;6.50;1.30;;;9.40;79.80;;;;;;5096589;28;20028;-79
2021/12/10 10:47:09;;;;;;;4.03;1.58;;;9.50;79.50;;;;;;5118515;28;20057;-79
2021/12/10 10:49:44;;;;;;;10.05;2.58;;;9.60;78.30;;;;;;5107578;28;20056;-79
2021/12/10 10:52:33;;;;;;;8.85;2.03;;;9.70;78.70;;;;;;5077895;28;20021;-79
2021/12/10 10:55:10;;;;;;;8.10;2.20;;;9.80;77.70;;;;;;5076932;28;20029;-80
2021/12/10 10:57:39;;;;;;;9.65;3.08;;;9.70;77.60;;;;;;5076222;28;20102;-80
2021/12/10 11:00:17;;;;;;;4.60;2.58;;;9.60;78.40;;;;;;5083778;28;20089;-79
2021/12/10 11:02:53;;;;;;;2.30;1.20;;;9.50;78.60;;;;;;5097959;28;20021;-79
2021/12/10 11:05:22;;;;;;;9.75;2.13;;;9.40;77.10;;;;;;5097916;28;20077;-79
2021/12/10 11:07:52;;;;;;;8.57;2.00;;;9.40;77.80;;;;;;5097609;28;20027;-79
2021/12/10 11:10:26;;;;;;;;;;;9.30;77.10;;;;;;5085221;28;20029;-80
2021/12/10 11:12:52;;;;;;;9.90;2.20;;;9.20;76.60;;;;;;5076067;28;19936;-80
2021/12/10 11:15:18;;;;;;;9.48;1.88;;;9.20;75.90;;;;;;5075932;28;20429;-78
2021/12/10 11:17:45;;;;;;;4.05;1.55;;;9.20;75.20;;;;;;5086047;28;20402;-81
2021/12/10 11:20:35;;;;;;;10.00;1.45;;;9.20;76.10;;;;;;5086534;28;20032;-79
2021/12/10 11:23:06;;;;;;;6.43;1.92;;;9.30;77.70;;;;;;5088866;28;20027;-84
2021/12/10 11:25:39;;;;;;;7.60;2.03;;;9.30;78.00;;;;;;5091981;28;20032;-80
2021/12/10 11:28:10;;;;;;;8.10;1.88;;;9.40;79.40;;;;;;5087271;28;20031;-77
2021/12/10 11:30:42;;;;;;;4.20;1.63;;;9.20;76.60;;;;;;5087469;28;20032;-82
2021/12/10 11:33:14;;;;;;;5.22;1.83;;;9.20;77.60;;;;;;5088648;28;20063;-87
2021/12/10 11:35:50;;;;;;;12.82;2.33;;;9.20;79.60;;;;;;5083377;28;20036;-87
2021/12/10 11:38:17;;;;;;;5.43;1.70;;;9.00;79.20;;;;;;5088955;28;20055;-82
2021/12/10 11:41:12;;;;;;;3.35;1.17;;;8.20;80.90;;;;;;5085740;28;20494;-82
2021/12/10 11:43:44;;;;;;;8.60;1.30;;;7.50;86.40;;;;;;5082637;28;20028;-82
2021/12/10 11:48:47;;;;;;;1.88;1.00;;;7.30;86.70;;;;;;5095630;28;20016;-83
2021/12/10 11:51:18;;;;;;;4.97;1.73;;;7.20;87.20;;;;;;5082097;28;20020;-84
2021/12/10 11:53:59;;;;;;;4.47;2.00;;;7.30;87.70;;;;;;5084651;28;20415;-85
2021/12/10 11:56:44;;;;;;;3.67;1.83;;;7.40;87.10;;;;;;5086790;28;20604;-81
2021/12/10 11:59:16;;;;;;;7.43;1.38;;;7.70;86.00;;;;;;5087214;28;20020;-81
2021/12/10 12:01:56;;;;;;;2.35;0.88;;;7.80;84.80;;;;;;5091253;28;20095;-85
2021/12/10 12:04:48;;;;;;;3.75;1.50;;;8.00;83.70;;;;;;5081362;28;20020;-79
2021/12/10 12:07:17;;;;;;;1.50;0.98;;;8.30;83.60;;;;;;5089073;28;20111;-79
2021/12/10 12:09:45;;;;;;;4.32;1.83;;;8.50;82.50;;;;;;5095625;28;20098;-79
2021/12/10 12:12:15;;;;;;;6.40;1.58;;;8.60;81.50;;;;;;5095417;28;20055;-79
2021/12/10 12:14:49;;;;;;;5.75;2.35;;;8.70;80.40;;;;;;5092928;28;20020;-79
2021/12/10 12:17:53;;;;;;;4.82;2.38;;;8.70;81.00;;;;;;5094032;28;20062;-79
2021/12/10 12:20:28;;;;;;;2.65;1.20;;;8.90;81.50;;;;;;5095330;28;20020;-79
2021/12/10 12:25:48;;;;;;;4.00;1.55;;;9.10;80.40;;;;;;5093979;28;20031;-79
2021/12/10 12:28:18;;;;;;;5.72;2.03;;;9.30;80.00;;;;;;5094219;28;20089;-79
2021/12/10 12:31:05;;;;;;;6.30;1.80;;;9.30;79.00;;;;;;5095605;28;20031;-80
2021/12/10 12:33:49;;;;;;;6.90;1.75;;;9.40;78.40;;;;;;5091426;28;20032;-78
2021/12/10 12:36:15;;;;;;;6.85;1.75;;;9.30;79.20;;;;;;5078449;28;20028;-79
2021/12/10 12:38:46;;;;;;;4.93;1.33;;;9.40;78.60;;;;;;5095880;28;20788;-78
2021/12/10 12:41:14;;;;;;;6.90;1.90;;;9.40;79.80;;;;;;5081152;28;20036;-78
2021/12/10 12:43:42;;;;;;;4.97;1.85;;;9.40;78.80;;;;;;5084124;28;20079;-78
2021/12/10 12:46:11;;;;;;;6.10;1.70;;;9.30;79.50;;;;;;5110626;28;20023;-78
2021/12/10 12:48:54;;;;;;;3.47;1.00;;;9.00;77.00;;;;;;5109643;28;20066;-78
2021/12/10 12:51:21;;;;;;;1.98;1.00;;;8.60;79.70;;;;;;5075246;28;20056;-78
2021/12/10 12:53:49;;;;;;;1.25;0.80;;;8.40;78.40;;;;;;5074121;28;20036;-78
2021/12/10 12:56:16;;;;;;;0.70;0.70;;;8.40;77.70;;;;;;5074705;28;20024;-78
2021/12/10 12:58:45;;;;;;;1.38;1.08;;;8.30;77.90;;;;;;5075931;28;20024;-78
2021/12/10 13:01:17;;;;;;;2.53;1.05;;;8.30;78.80;;;;;;5075156;28;20025;-78
2021/12/10 13:03:48;;;;;;;4.40;1.75;;;8.20;78.50;;;;;;5075342;28;20051;-78
2021/12/10 13:06:35;;;;;;;7.20;1.80;;;8.20;79.10;;;;;;5085898;28;20387;-78
2021/12/10 13:09:16;;;;;;;2.85;1.45;;;8.10;78.60;;;;;;5081839;28;20060;-78
2021/12/10 13:12:07;;;;;;;6.43;1.65;;;8.00;78.10;;;;;;5088360;28;20039;-78
2021/12/10 13:14:50;;;;;;;3.95;1.10;;;8.00;79.70;;;;;;5083284;28;20119;-78
2021/12/10 13:17:32;;;;;;;5.82;1.50;;;8.00;78.80;;;;;;5074742;28;20020;-78
2021/12/10 13:20:00;;;;;;;4.20;1.27;;;8.10;81.00;;;;;;5074984;28;20059;-79
2021/12/10 13:22:28;;;;;;;2.08;1.05;;;8.20;80.30;;;;;;5075152;28;20367;-78
2021/12/10 13:25:00;;;;;;;5.07;1.20;;;8.20;80.00;;;;;;5074834;28;20177;-78
2021/12/10 13:27:26;;;;;;;5.97;1.63;;;8.30;79.10;;;;;;5074768;28;20476;-80
2021/12/10 13:29:52;;;;;;;9.30;1.42;;;8.30;79.50;;;;;;5074600;28;20027;-79
2021/12/10 13:32:18;;;;;;;4.40;1.35;;;8.30;79.30;;;;;;5074981;28;20086;-79
2021/12/10 13:34:44;;;;;;;2.35;1.00;;;8.20;79.50;;;;;;5079123;28;20039;-79
2021/12/10 13:37:13;;;;;;;0.90;0.80;;;8.00;79.30;;;;;;5095059;28;20386;-78